Time;durP1;ratioP1;P1;durP2;ratioP2;P2;SDS_P1;SDS_P2;PMS_P1;PMS_P2;Temp;Humidity;BMP_temperature;BMP_pressure;BME280_temperature;BME280_humidity;BME280_pressure;Samples;Min_cycle;Max_cycle;Signal;HPM_P1;HPM_P2
2021/11/27 00:01:07;;;;;;;0.80;0.80;;;1.60;99.90;;;;;;5052148;28;20033;-61
2021/11/27 00:03:33;;;;;;;1.58;1.00;;;1.60;99.90;;;;;;5058805;28;20039;-62
2021/11/27 00:05:59;;;;;;;1.17;0.90;;;1.60;99.90;;;;;;5060073;28;20446;-60
2021/11/27 00:08:25;;;;;;;0.85;0.75;;;1.60;99.90;;;;;;5056301;28;20037;-62
2021/11/27 00:10:54;;;;;;;1.35;0.90;;;1.60;99.90;;;;;;5060221;28;20040;-61
2021/11/27 00:13:22;;;;;;;1.10;0.80;;;1.70;99.90;;;;;;5053134;28;20033;-61
2021/11/27 00:15:49;;;;;;;1.08;0.80;;;1.70;99.90;;;;;;5057335;28;20120;-61
2021/11/27 00:18:16;;;;;;;0.60;0.60;;;1.60;99.90;;;;;;5050080;28;20040;-61
2021/11/27 00:20:50;;;;;;;2.17;0.98;;;1.70;99.90;;;;;;5047791;28;20037;-61
2021/11/27 00:23:16;;;;;;;1.20;0.80;;;1.70;99.90;;;;;;5050016;28;20052;-61
2021/11/27 00:25:43;;;;;;;1.30;0.80;;;1.70;99.90;;;;;;5040407;28;20037;-61
2021/11/27 00:28:09;;;;;;;1.42;0.88;;;1.60;99.90;;;;;;5050077;28;20111;-61
2021/11/27 00:30:37;;;;;;;1.67;0.75;;;1.60;99.90;;;;;;5046739;28;20036;-61
2021/11/27 00:33:05;;;;;;;1.42;0.85;;;1.70;99.90;;;;;;5047198;28;20049;-61
2021/11/27 00:35:31;;;;;;;1.48;0.95;;;1.60;99.90;;;;;;5054055;28;20063;-61
2021/11/27 00:37:58;;;;;;;0.90;0.60;;;1.60;99.90;;;;;;5046717;28;20048;-60
2021/11/27 00:40:25;;;;;;;1.33;0.95;;;1.60;99.90;;;;;;5045859;28;20037;-61
2021/11/27 00:42:52;;;;;;;1.65;1.00;;;1.70;99.90;;;;;;5042255;28;20128;-60
2021/11/27 00:45:19;;;;;;;1.75;0.75;;;1.70;99.90;;;;;;5049050;28;20041;-61
2021/11/27 00:47:48;;;;;;;0.90;0.70;;;1.60;99.90;;;;;;5049577;28;20103;-60
2021/11/27 00:50:17;;;;;;;0.98;0.80;;;1.70;99.90;;;;;;5045182;28;20064;-60
2021/11/27 00:52:43;;;;;;;1.42;1.23;;;1.60;99.90;;;;;;5043411;28;20048;-61
2021/11/27 00:55:10;;;;;;;1.40;0.90;;;1.60;99.90;;;;;;5045791;28;20448;-60
2021/11/27 00:57:37;;;;;;;1.33;1.02;;;1.70;99.90;;;;;;5038887;28;20063;-61
2021/11/27 01:00:06;;;;;;;1.60;0.90;;;1.70;99.90;;;;;;5039621;28;20468;-61
2021/11/27 01:02:32;;;;;;;0.85;0.60;;;1.60;99.90;;;;;;5041688;28;20033;-60
2021/11/27 01:04:58;;;;;;;1.65;0.70;;;1.60;99.90;;;;;;5044974;28;20053;-62
2021/11/27 01:07:24;;;;;;;1.10;0.70;;;1.60;99.90;;;;;;5044775;28;20520;-61
2021/11/27 01:09:49;;;;;;;1.00;0.90;;;1.70;99.90;;;;;;5044568;28;20095;-61
2021/11/27 01:12:15;;;;;;;29.90;16.88;;;1.70;99.90;;;;;;5038771;28;20454;-60
2021/11/27 01:14:41;;;;;;;21.15;10.25;;;1.70;99.90;;;;;;5044753;28;20041;-61
2021/11/27 01:17:08;;;;;;;27.00;11.80;;;1.70;99.90;;;;;;5036903;28;20672;-57
2021/11/27 01:19:36;;;;;;;7.15;3.25;;;1.70;99.90;;;;;;5046855;28;20493;-61
2021/11/27 01:22:23;;;;;;;2.42;1.50;;;1.70;99.90;;;;;;5035302;28;20047;-60
2021/11/27 01:24:50;;;;;;;1.40;1.00;;;1.60;99.90;;;;;;5035445;28;20107;-61
2021/11/27 01:27:16;;;;;;;1.65;1.10;;;1.60;99.90;;;;;;5038396;28;20519;-61
2021/11/27 01:29:43;;;;;;;1.23;0.90;;;1.60;99.90;;;;;;5046508;28;20063;-60
2021/11/27 01:32:12;;;;;;;0.70;0.70;;;1.70;99.90;;;;;;5035238;28;20091;-60
2021/11/27 01:34:40;;;;;;;1.35;0.88;;;1.60;99.90;;;;;;5041848;28;20124;-61
2021/11/27 01:37:06;;;;;;;1.13;0.80;;;1.70;99.90;;;;;;5043632;28;20052;-60
2021/11/27 01:39:32;;;;;;;1.10;0.90;;;1.50;99.90;;;;;;5042618;28;20068;-59
2021/11/27 01:41:58;;;;;;;1.55;0.80;;;1.50;99.90;;;;;;5037628;28;20061;-61
2021/11/27 01:44:24;;;;;;;1.02;0.82;;;1.60;99.90;;;;;;5043020;28;20098;-61
2021/11/27 01:46:52;;;;;;;1.52;1.08;;;1.60;99.90;;;;;;5047445;28;20512;-61
2021/11/27 01:49:18;;;;;;;1.45;1.00;;;1.60;99.90;;;;;;5048132;28;20070;-60
2021/11/27 01:51:43;;;;;;;2.85;1.08;;;1.70;99.90;;;;;;5042175;28;20504;-61
2021/11/27 01:54:11;;;;;;;0.95;0.80;;;1.70;99.90;;;;;;5046580;28;20037;-61
2021/11/27 01:56:49;;;;;;;1.60;0.82;;;1.60;99.90;;;;;;5047920;28;20125;-61
2021/11/27 01:59:15;;;;;;;1.23;1.00;;;1.60;99.90;;;;;;5045196;28;20183;-61
2021/11/27 02:01:41;;;;;;;2.50;1.20;;;1.60;99.90;;;;;;5036290;28;20048;-62
2021/11/27 02:04:10;;;;;;;1.33;1.00;;;1.60;99.90;;;;;;5048110;28;20036;-60
2021/11/27 02:06:37;;;;;;;1.35;0.73;;;1.70;99.90;;;;;;5039466;28;20045;-60
2021/11/27 02:09:06;;;;;;;1.00;0.90;;;1.70;99.90;;;;;;5043706;28;20045;-60
2021/11/27 02:11:35;;;;;;;1.13;0.90;;;1.70;99.90;;;;;;5041276;28;20437;-60
2021/11/27 02:14:01;;;;;;;1.08;0.75;;;1.60;99.90;;;;;;5037581;28;20519;-60
2021/11/27 02:16:27;;;;;;;1.00;0.73;;;1.70;99.90;;;;;;5042436;28;20045;-60
2021/11/27 02:18:53;;;;;;;0.88;0.68;;;1.70;99.90;;;;;;5044338;28;20040;-62
2021/11/27 02:21:21;;;;;;;0.75;0.70;;;1.70;99.90;;;;;;5042843;28;20041;-59
2021/11/27 02:23:48;;;;;;;1.17;0.60;;;1.70;99.90;;;;;;5044527;28;20048;-61
2021/11/27 02:26:16;;;;;;;0.88;0.60;;;1.70;99.90;;;;;;5032250;28;20810;-59
2021/11/27 02:28:49;;;;;;;1.35;0.93;;;1.70;99.90;;;;;;5048819;28;20048;-61
2021/11/27 02:31:15;;;;;;;0.98;0.77;;;1.70;99.90;;;;;;5042832;28;20041;-61
2021/11/27 02:33:41;;;;;;;0.68;0.50;;;1.60;99.90;;;;;;5041505;28;20560;-60
2021/11/27 02:36:07;;;;;;;0.90;0.57;;;1.60;99.90;;;;;;5043315;28;20139;-60
2021/11/27 02:38:33;;;;;;;1.10;0.80;;;1.60;99.90;;;;;;5029806;28;20045;-62
2021/11/27 02:40:58;;;;;;;1.15;0.75;;;1.70;99.90;;;;;;5047791;28;20030;-61
2021/11/27 02:43:24;;;;;;;1.27;1.08;;;1.60;99.90;;;;;;5039600;28;20128;-62
2021/11/27 02:45:50;;;;;;;1.10;0.93;;;1.70;99.90;;;;;;5046922;28;20053;-61
2021/11/27 02:48:16;;;;;;;1.63;0.70;;;1.70;99.90;;;;;;5038023;28;20048;-58
2021/11/27 02:50:42;;;;;;;0.90;0.80;;;1.60;99.90;;;;;;5044681;28;20483;-60
2021/11/27 02:53:08;;;;;;;1.52;1.00;;;1.60;99.90;;;;;;5044334;28;21103;-61
2021/11/27 02:55:33;;;;;;;1.25;0.88;;;1.70;99.90;;;;;;5030397;28;20046;-60
2021/11/27 02:57:59;;;;;;;1.20;1.00;;;1.60;99.90;;;;;;5044960;28;20049;-61
2021/11/27 03:00:25;;;;;;;1.17;0.90;;;1.60;99.90;;;;;;5037816;28;20037;-60
2021/11/27 03:02:51;;;;;;;1.20;0.82;;;1.60;99.90;;;;;;5040675;28;20048;-60
2021/11/27 03:05:18;;;;;;;0.50;0.50;;;1.60;99.90;;;;;;5045815;28;20029;-60
2021/11/27 03:07:44;;;;;;;0.60;0.60;;;1.60;99.90;;;;;;5038795;28;20037;-62
2021/11/27 03:10:13;;;;;;;0.75;0.55;;;1.60;99.90;;;;;;5046150;28;20102;-61
2021/11/27 03:12:39;;;;;;;1.67;0.70;;;1.60;99.90;;;;;;5038549;28;20040;-61
2021/11/27 03:15:10;;;;;;;0.70;0.50;;;1.60;99.90;;;;;;5047155;28;20045;-61
2021/11/27 03:17:35;;;;;;;0.82;0.50;;;1.60;99.90;;;;;;5032835;28;20061;-61
2021/11/27 03:20:01;;;;;;;0.65;0.40;;;1.60;99.90;;;;;;5044605;28;20096;-60
2021/11/27 03:22:26;;;;;;;0.75;0.55;;;1.60;99.90;;;;;;5042539;28;20037;-61
2021/11/27 03:24:52;;;;;;;1.08;0.60;;;1.60;99.90;;;;;;5046270;28;20072;-61
2021/11/27 03:27:18;;;;;;;1.15;0.80;;;1.60;99.90;;;;;;5038939;28;20504;-61
2021/11/27 03:29:44;;;;;;;1.13;0.65;;;1.60;99.90;;;;;;5039634;28;20068;-60
2021/11/27 03:32:12;;;;;;;0.80;0.60;;;1.60;99.90;;;;;;5039234;28;20116;-60
2021/11/27 03:34:38;;;;;;;0.70;0.50;;;1.60;99.90;;;;;;5042515;28;20123;-61
2021/11/27 03:37:04;;;;;;;1.55;0.60;;;1.70;99.90;;;;;;5034946;28;20232;-61
2021/11/27 03:39:30;;;;;;;0.95;0.55;;;1.60;99.90;;;;;;5043999;28;20503;-60
2021/11/27 03:41:59;;;;;;;0.70;0.60;;;1.70;99.90;;;;;;5035933;28;20121;-61
2021/11/27 03:44:24;;;;;;;0.45;0.45;;;1.70;99.90;;;;;;5045321;28;20041;-61
2021/11/27 03:46:50;;;;;;;0.43;0.43;;;1.60;99.90;;;;;;5038251;28;20050;-59
2021/11/27 03:49:21;;;;;;;0.40;0.40;;;1.70;99.90;;;;;;5046345;28;20065;-61
2021/11/27 03:51:46;;;;;;;0.52;0.50;;;1.70;99.90;;;;;;5045104;28;20094;-62
2021/11/27 03:54:12;;;;;;;0.73;0.57;;;1.70;99.90;;;;;;5047295;28;20036;-61
2021/11/27 03:56:38;;;;;;;0.70;0.63;;;1.70;99.90;;;;;;5041503;28;20049;-62
2021/11/27 03:59:05;;;;;;;0.88;0.57;;;1.60;99.90;;;;;;5047586;28;20033;-61
2021/11/27 04:01:32;;;;;;;0.85;0.60;;;1.60;99.90;;;;;;5037244;28;20501;-61
2021/11/27 04:03:58;;;;;;;0.50;0.40;;;1.70;99.90;;;;;;5047169;28;20037;-61
2021/11/27 04:06:24;;;;;;;0.65;0.55;;;1.70;99.90;;;;;;5041436;28;20037;-61
2021/11/27 04:08:51;;;;;;;1.13;0.77;;;1.70;99.90;;;;;;5043072;28;20052;-61
2021/11/27 04:11:17;;;;;;;0.40;0.40;;;1.70;99.90;;;;;;5046986;28;20140;-62
2021/11/27 04:13:43;;;;;;;0.50;0.50;;;1.80;99.90;;;;;;5038521;28;20132;-60
2021/11/27 04:16:08;;;;;;;1.27;0.70;;;1.70;99.90;;;;;;5040220;28;20141;-59
2021/11/27 04:18:34;;;;;;;0.82;0.50;;;1.60;99.90;;;;;;5044050;28;20033;-61
2021/11/27 04:21:00;;;;;;;0.50;0.50;;;1.70;99.90;;;;;;5048156;28;20041;-62
2021/11/27 04:23:25;;;;;;;0.80;0.70;;;1.70;99.90;;;;;;5049783;28;20047;-62
2021/11/27 04:25:51;;;;;;;0.47;0.47;;;1.70;99.90;;;;;;5050300;28;20131;-61
2021/11/27 04:28:18;;;;;;;0.90;0.55;;;1.70;99.90;;;;;;5040917;28;20083;-62
2021/11/27 04:30:44;;;;;;;1.38;0.82;;;1.70;99.90;;;;;;5039841;28;20037;-61
2021/11/27 04:33:10;;;;;;;0.50;0.50;;;1.70;99.90;;;;;;5041134;28;20032;-61
2021/11/27 04:35:36;;;;;;;0.63;0.60;;;1.70;99.90;;;;;;5047985;28;20052;-61
2021/11/27 04:38:03;;;;;;;2.38;0.77;;;1.70;99.90;;;;;;5040326;28;20075;-61
2021/11/27 04:40:29;;;;;;;0.63;0.50;;;1.70;99.90;;;;;;5046527;28;20045;-62
2021/11/27 04:42:55;;;;;;;0.60;0.50;;;1.70;99.90;;;;;;5042297;28;20033;-61
2021/11/27 04:45:22;;;;;;;1.15;0.90;;;1.70;99.90;;;;;;5041026;28;20044;-62
2021/11/27 04:47:48;;;;;;;1.77;0.65;;;1.70;99.90;;;;;;5040832;28;20191;-61
2021/11/27 04:50:15;;;;;;;0.52;0.40;;;1.70;99.90;;;;;;5049073;28;20796;-61
2021/11/27 04:52:40;;;;;;;0.60;0.50;;;1.80;99.90;;;;;;5048085;28;20504;-61
2021/11/27 04:55:08;;;;;;;0.90;0.70;;;1.80;99.90;;;;;;5047996;28;20044;-61
2021/11/27 04:57:34;;;;;;;1.08;0.90;;;1.80;99.90;;;;;;5041261;28;20983;-60
2021/11/27 05:00:00;;;;;;;1.33;1.00;;;1.80;99.90;;;;;;5040896;28;20048;-61
2021/11/27 05:02:26;;;;;;;1.10;1.00;;;1.80;99.90;;;;;;5042859;28;20052;-61
2021/11/27 05:04:52;;;;;;;1.48;0.95;;;1.80;99.90;;;;;;5049014;28;20519;-61
2021/11/27 05:07:17;;;;;;;1.33;0.90;;;1.80;99.90;;;;;;5039391;28;20538;-61
2021/11/27 05:09:44;;;;;;;1.88;1.30;;;1.80;99.90;;;;;;5042016;28;20064;-61
2021/11/27 05:12:09;;;;;;;2.22;1.30;;;1.80;99.90;;;;;;5038547;28;20515;-61
2021/11/27 05:14:35;;;;;;;1.30;0.98;;;1.80;99.90;;;;;;5050115;28;20040;-62
2021/11/27 05:17:01;;;;;;;1.08;0.70;;;1.80;99.90;;;;;;5038913;28;20505;-61
2021/11/27 05:19:26;;;;;;;1.15;0.90;;;1.80;99.90;;;;;;5049213;28;20033;-60
2021/11/27 05:21:52;;;;;;;2.05;0.90;;;1.80;99.90;;;;;;5044952;28;20039;-60
2021/11/27 05:24:18;;;;;;;1.00;0.98;;;1.80;99.90;;;;;;5047386;28;20036;-62
2021/11/27 05:26:44;;;;;;;1.25;0.85;;;1.80;99.90;;;;;;5044130;28;20447;-61
2021/11/27 05:29:09;;;;;;;0.98;0.82;;;1.80;99.90;;;;;;5047228;28;20165;-60
2021/11/27 05:31:35;;;;;;;1.10;0.80;;;1.80;99.90;;;;;;5042489;28;20120;-61
2021/11/27 05:36:35;;;;;;;1.20;0.93;;;1.80;99.90;;;;;;5039981;28;20099;-61
2021/11/27 05:39:03;;;;;;;25.95;12.07;;;1.80;99.90;;;;;;5039713;28;20048;-60
2021/11/27 05:41:29;;;;;;;14.20;6.65;;;1.80;99.90;;;;;;5043052;28;20049;-62
2021/11/27 05:43:56;;;;;;;17.75;7.18;;;1.80;99.90;;;;;;5042999;28;20132;-60
2021/11/27 05:46:21;;;;;;;13.95;7.30;;;1.80;99.90;;;;;;5043901;28;20049;-62
2021/11/27 05:48:47;;;;;;;5.18;2.85;;;1.90;99.90;;;;;;5042720;28;20094;-59
2021/11/27 05:51:13;;;;;;;4.40;2.60;;;1.80;99.90;;;;;;5038563;28;20048;-60
2021/11/27 05:53:40;;;;;;;27.42;13.27;;;1.70;99.90;;;;;;5045778;28;20040;-59
2021/11/27 05:56:06;;;;;;;7.07;4.10;;;1.60;99.90;;;;;;5045321;28;20051;-60
2021/11/27 05:58:32;;;;;;;11.68;6.03;;;1.70;99.90;;;;;;5039485;28;20041;-60
2021/11/27 06:01:05;;;;;;;11.23;5.88;;;1.60;99.90;;;;;;5038368;28;20148;-56
2021/11/27 06:03:32;;;;;;;7.75;3.88;;;1.70;99.90;;;;;;5044327;28;20048;-60
2021/11/27 06:05:57;;;;;;;2.85;1.50;;;1.70;99.90;;;;;;5046634;28;20056;-61
2021/11/27 06:08:24;;;;;;;2.45;1.60;;;1.70;99.90;;;;;;5037461;28;20060;-59
2021/11/27 06:10:50;;;;;;;1.98;1.17;;;1.70;99.90;;;;;;5038583;28;20523;-59
2021/11/27 06:13:16;;;;;;;1.92;1.55;;;1.70;99.90;;;;;;5038944;28;20049;-56
2021/11/27 06:15:42;;;;;;;1.33;0.90;;;1.80;99.90;;;;;;5045998;28;20033;-59
2021/11/27 06:18:08;;;;;;;1.52;1.08;;;1.70;99.90;;;;;;5035786;28;21988;-59
2021/11/27 06:20:33;;;;;;;0.65;0.60;;;1.70;99.90;;;;;;5046826;28;20040;-60
2021/11/27 06:22:59;;;;;;;1.25;1.15;;;1.70;99.90;;;;;;5044697;28;20045;-58
2021/11/27 06:25:26;;;;;;;2.20;1.63;;;1.70;99.90;;;;;;5045463;28;20037;-59
2021/11/27 06:27:52;;;;;;;1.67;1.20;;;1.80;99.90;;;;;;5037857;28;20037;-59
2021/11/27 06:30:18;;;;;;;1.13;0.98;;;1.70;99.90;;;;;;5046091;28;20087;-59
2021/11/27 06:32:44;;;;;;;1.35;0.93;;;1.80;99.90;;;;;;5039576;28;20041;-59
2021/11/27 06:35:11;;;;;;;1.30;1.10;;;1.80;99.90;;;;;;5045920;28;20036;-59
2021/11/27 06:37:37;;;;;;;1.08;0.85;;;1.80;99.90;;;;;;5038243;28;20044;-59
2021/11/27 06:40:03;;;;;;;0.82;0.68;;;1.90;99.90;;;;;;5046884;28;20037;-58
2021/11/27 06:42:29;;;;;;;0.40;0.40;;;1.90;99.90;;;;;;5038754;28;20048;-58
2021/11/27 06:44:55;;;;;;;0.80;0.60;;;1.80;99.90;;;;;;5046876;28;20045;-58
2021/11/27 06:47:22;;;;;;;1.23;0.55;;;1.80;99.90;;;;;;5036285;28;20540;-60
2021/11/27 06:49:50;;;;;;;0.85;0.75;;;1.80;99.90;;;;;;5047128;28;20095;-60
2021/11/27 06:52:15;;;;;;;1.23;0.90;;;1.80;99.90;;;;;;5044901;28;20056;-60
2021/11/27 06:54:42;;;;;;;0.60;0.60;;;1.80;99.90;;;;;;5044347;28;20420;-59
2021/11/27 06:57:08;;;;;;;0.52;0.50;;;1.80;99.90;;;;;;5037318;28;20051;-59
2021/11/27 06:59:36;;;;;;;0.70;0.47;;;1.80;99.90;;;;;;5036870;28;20040;-60
2021/11/27 07:02:02;;;;;;;0.95;0.70;;;1.80;99.90;;;;;;5038988;28;20040;-59
2021/11/27 07:04:27;;;;;;;0.80;0.70;;;1.80;99.90;;;;;;5038328;28;20041;-60
2021/11/27 07:06:53;;;;;;;1.10;0.85;;;1.80;99.90;;;;;;5032017;28;20045;-60
2021/11/27 07:09:19;;;;;;;0.68;0.50;;;1.80;99.90;;;;;;5035038;28;20538;-59
2021/11/27 07:11:45;;;;;;;0.68;0.60;;;1.80;99.90;;;;;;5032659;28;20102;-59
2021/11/27 07:14:10;;;;;;;0.60;0.60;;;1.80;99.90;;;;;;5036675;28;20116;-58
2021/11/27 07:16:37;;;;;;;1.23;0.70;;;1.80;99.90;;;;;;5031798;28;20045;-58
2021/11/27 07:19:03;;;;;;;2.42;1.00;;;1.90;99.90;;;;;;5044385;28;20049;-59
2021/11/27 07:21:29;;;;;;;1.70;0.73;;;1.90;99.90;;;;;;5030772;28;20048;-58
2021/11/27 07:23:54;;;;;;;0.75;0.73;;;1.90;99.90;;;;;;5045095;28;20095;-59
2021/11/27 07:26:21;;;;;;;2.83;1.27;;;1.90;99.90;;;;;;5039092;28;20044;-59
2021/11/27 07:28:47;;;;;;;1.48;0.93;;;1.90;99.90;;;;;;5040560;28;20045;-59
2021/11/27 07:31:14;;;;;;;1.10;1.00;;;2.00;99.90;;;;;;5033917;28;20038;-59
2021/11/27 07:33:40;;;;;;;1.10;0.88;;;1.90;99.90;;;;;;5041921;28;20049;-60
2021/11/27 07:36:05;;;;;;;1.00;0.90;;;1.90;99.90;;;;;;5033890;28;20060;-60
2021/11/27 07:38:32;;;;;;;1.23;1.00;;;1.90;99.90;;;;;;5041655;28;20101;-60
2021/11/27 07:40:59;;;;;;;1.63;1.10;;;1.90;99.90;;;;;;5032681;28;20034;-58
2021/11/27 07:43:24;;;;;;;1.90;1.13;;;1.90;99.90;;;;;;5043030;28;20041;-59
2021/11/27 07:45:50;;;;;;;2.03;1.35;;;2.00;99.90;;;;;;5050133;28;20048;-60
2021/11/27 07:48:16;;;;;;;1.23;0.98;;;2.00;99.90;;;;;;5040872;28;20041;-61
2021/11/27 07:50:42;;;;;;;1.42;0.73;;;1.90;99.90;;;;;;5035982;28;20457;-59
2021/11/27 07:53:07;;;;;;;1.02;0.82;;;1.90;99.90;;;;;;5046592;28;20076;-59
2021/11/27 07:55:34;;;;;;;18.25;8.63;;;2.00;99.90;;;;;;5048588;28;20068;-59
2021/11/27 07:57:59;;;;;;;4.15;2.20;;;2.00;99.90;;;;;;5049450;28;20036;-57
2021/11/27 08:00:25;;;;;;;2.70;1.13;;;2.00;99.90;;;;;;5044181;28;21012;-57
2021/11/27 08:02:51;;;;;;;4.20;2.20;;;2.00;99.90;;;;;;5045550;28;20768;-55
2021/11/27 08:05:17;;;;;;;34.45;15.75;;;2.00;99.90;;;;;;5037203;28;20052;-59
2021/11/27 08:07:43;;;;;;;6.72;2.75;;;2.00;99.90;;;;;;5038134;28;20046;-58
2021/11/27 08:10:11;;;;;;;12.95;8.30;;;2.10;99.90;;;;;;5037863;28;20042;-60
2021/11/27 08:12:37;;;;;;;4.78;2.10;;;2.20;99.90;;;;;;5038486;28;20091;-61
2021/11/27 08:15:04;;;;;;;1.85;1.27;;;2.20;99.90;;;;;;5038510;28;20041;-60
2021/11/27 08:17:30;;;;;;;12.43;6.97;;;2.30;99.90;;;;;;5037396;28;20119;-61
2021/11/27 08:19:57;;;;;;;4.00;2.13;;;2.40;99.90;;;;;;5045455;28;20105;-63
2021/11/27 08:22:24;;;;;;;3.42;2.20;;;2.40;99.90;;;;;;5039781;28;20041;-61
2021/11/27 08:24:51;;;;;;;7.95;3.63;;;2.50;99.90;;;;;;5050386;28;20544;-61
2021/11/27 08:27:17;;;;;;;2.67;1.60;;;2.50;99.90;;;;;;5031071;28;20049;-61
2021/11/27 08:29:43;;;;;;;7.22;3.40;;;2.60;99.90;;;;;;5044746;28;20069;-64
2021/11/27 08:32:09;;;;;;;2.28;1.63;;;2.60;99.90;;;;;;5038548;28;20449;-62
2021/11/27 08:34:35;;;;;;;1.63;1.10;;;2.50;99.90;;;;;;5040301;28;20041;-63
2021/11/27 08:37:00;;;;;;;2.90;1.33;;;2.60;99.90;;;;;;5038783;28;20048;-63
2021/11/27 08:39:26;;;;;;;1.38;0.93;;;2.60;99.90;;;;;;5038239;28;20120;-62
2021/11/27 08:41:52;;;;;;;1.40;1.05;;;2.50;99.90;;;;;;5040153;28;20032;-62
2021/11/27 08:44:17;;;;;;;1.40;1.20;;;2.50;99.90;;;;;;5050725;28;20037;-62
2021/11/27 08:46:43;;;;;;;1.95;1.00;;;2.50;99.90;;;;;;5040513;28;20049;-61
2021/11/27 08:49:09;;;;;;;1.50;1.10;;;2.50;99.90;;;;;;5040605;28;20044;-63
2021/11/27 08:51:40;;;;;;;1.30;1.00;;;2.60;99.90;;;;;;5034080;28;20033;-63
2021/11/27 08:54:07;;;;;;;1.77;1.33;;;2.60;99.90;;;;;;5045989;28;20053;-62
2021/11/27 08:56:32;;;;;;;1.60;1.23;;;2.60;99.90;;;;;;5049193;28;20123;-61
2021/11/27 08:58:58;;;;;;;1.63;1.35;;;2.60;99.90;;;;;;5046385;28;20052;-62
2021/11/27 09:01:24;;;;;;;1.20;1.10;;;2.60;99.90;;;;;;5038612;28;20041;-63
2021/11/27 09:03:50;;;;;;;1.75;1.23;;;2.60;99.90;;;;;;5047606;28;20060;-63
2021/11/27 09:06:15;;;;;;;1.35;1.20;;;2.50;99.90;;;;;;5031637;28;20617;-62
2021/11/27 09:08:42;;;;;;;1.13;1.00;;;2.50;99.90;;;;;;5045454;28;20025;-62
2021/11/27 09:11:10;;;;;;;1.10;1.00;;;2.40;99.90;;;;;;5045735;28;20037;-62
2021/11/27 09:13:36;;;;;;;1.00;0.90;;;2.50;99.90;;;;;;5039966;28;21020;-62
2021/11/27 09:16:03;;;;;;;2.03;0.82;;;2.50;99.90;;;;;;5039532;28;20124;-63
2021/11/27 09:18:31;;;;;;;3.45;2.13;;;2.40;99.90;;;;;;5039391;28;20049;-62
2021/11/27 09:20:57;;;;;;;4.93;2.75;;;2.50;99.90;;;;;;5032961;28;20061;-62
2021/11/27 09:23:23;;;;;;;3.63;2.13;;;2.50;99.90;;;;;;5047781;28;20040;-62
2021/11/27 09:25:49;;;;;;;4.78;2.40;;;2.50;99.90;;;;;;5047151;28;20091;-62
2021/11/27 09:28:15;;;;;;;2.13;1.52;;;2.50;99.90;;;;;;5039998;28;20071;-62
2021/11/27 09:30:40;;;;;;;3.97;2.65;;;2.50;99.90;;;;;;5034041;28;20069;-62
2021/11/27 09:33:06;;;;;;;4.18;2.67;;;2.60;99.90;;;;;;5036550;28;20171;-62
2021/11/27 09:35:32;;;;;;;2.90;1.38;;;2.60;99.90;;;;;;5036031;28;20062;-61
2021/11/27 09:37:58;;;;;;;1.35;1.20;;;2.70;99.90;;;;;;5036708;28;20416;-61
2021/11/27 09:40:24;;;;;;;2.60;1.65;;;2.80;99.90;;;;;;5035759;28;20041;-62
2021/11/27 09:42:51;;;;;;;17.33;5.15;;;2.80;99.90;;;;;;5038025;28;20125;-61
2021/11/27 09:45:23;;;;;;;6.40;3.08;;;2.80;99.90;;;;;;5044162;28;20587;-62
2021/11/27 09:47:51;;;;;;;7.18;3.40;;;2.80;99.90;;;;;;5027160;28;20052;-62
2021/11/27 09:50:17;;;;;;;10.18;5.47;;;2.80;99.90;;;;;;5035214;28;20590;-62
2021/11/27 09:52:47;;;;;;;5.10;2.50;;;2.80;99.90;;;;;;5041622;28;20047;-62
2021/11/27 09:55:16;;;;;;;2.53;1.60;;;2.80;99.90;;;;;;5046753;28;20047;-62
2021/11/27 09:57:43;;;;;;;1.58;1.25;;;2.70;99.90;;;;;;5038924;28;20053;-63
2021/11/27 10:00:10;;;;;;;1.77;1.20;;;2.70;99.90;;;;;;5045024;28;20041;-62
2021/11/27 10:02:36;;;;;;;3.38;1.42;;;2.70;99.90;;;;;;5040648;28;20131;-62
2021/11/27 10:05:03;;;;;;;1.75;1.08;;;2.80;99.90;;;;;;5039110;28;20052;-62
2021/11/27 10:07:29;;;;;;;2.30;1.50;;;2.80;99.90;;;;;;5035124;28;20056;-62
2021/11/27 10:09:56;;;;;;;2.67;1.40;;;2.80;99.90;;;;;;5036714;28;20045;-63
2021/11/27 10:12:22;;;;;;;2.40;1.90;;;2.80;99.90;;;;;;5038839;28;20048;-62
2021/11/27 10:14:48;;;;;;;2.85;1.27;;;2.80;99.90;;;;;;5040732;28;20132;-62
2021/11/27 10:17:16;;;;;;;6.93;1.48;;;2.90;99.90;;;;;;5035188;28;20041;-62
2021/11/27 10:19:42;;;;;;;7.70;1.50;;;2.80;99.90;;;;;;5042989;28;20579;-62
2021/11/27 10:22:09;;;;;;;1.65;1.33;;;2.80;99.90;;;;;;5038218;28;20497;-62
2021/11/27 10:24:36;;;;;;;1.73;1.35;;;2.80;99.90;;;;;;5047980;28;20049;-62
2021/11/27 10:27:03;;;;;;;1.95;1.65;;;2.90;99.90;;;;;;5038879;28;20045;-62
2021/11/27 10:29:34;;;;;;;2.00;1.50;;;3.00;99.90;;;;;;5040501;28;20123;-62
2021/11/27 10:32:17;;;;;;;2.38;1.40;;;3.00;99.90;;;;;;5038649;28;20094;-62
2021/11/27 10:34:53;;;;;;;2.35;1.50;;;3.20;99.90;;;;;;5044242;28;20103;-62
2021/11/27 10:37:27;;;;;;;1.45;1.27;;;3.30;99.90;;;;;;5047196;28;20061;-62
2021/11/27 10:40:18;;;;;;;2.88;1.52;;;3.30;99.90;;;;;;5046732;28;20578;-62
2021/11/27 10:42:49;;;;;;;2.72;1.58;;;3.20;99.90;;;;;;5041466;28;20041;-62
2021/11/27 10:45:23;;;;;;;2.15;1.60;;;3.10;99.90;;;;;;5036705;28;20049;-61
2021/11/27 10:48:05;;;;;;;4.43;1.60;;;3.00;99.90;;;;;;5040685;28;20571;-61
2021/11/27 10:50:40;;;;;;;1.60;1.45;;;3.10;99.90;;;;;;5040569;28;20045;-61
2021/11/27 10:53:11;;;;;;;2.65;1.58;;;3.10;99.90;;;;;;5043573;28;20045;-61
2021/11/27 10:55:39;;;;;;;2.47;1.45;;;3.10;99.90;;;;;;5045176;28;20037;-62
2021/11/27 10:58:07;;;;;;;3.45;1.50;;;3.20;99.90;;;;;;5040656;28;20037;-62
2021/11/27 11:00:39;;;;;;;5.60;1.80;;;3.10;99.90;;;;;;5043747;28;20457;-62
2021/11/27 11:03:09;;;;;;;4.25;1.70;;;3.10;99.90;;;;;;5040661;28;20389;-62
2021/11/27 11:05:39;;;;;;;3.03;1.95;;;3.20;99.90;;;;;;5035903;28;20038;-62
2021/11/27 11:08:07;;;;;;;2.95;1.80;;;3.00;99.90;;;;;;5036436;28;20121;-61
2021/11/27 11:10:40;;;;;;;4.03;2.30;;;3.10;99.90;;;;;;5042615;28;20045;-62
2021/11/27 11:13:13;;;;;;;2.97;1.92;;;3.20;99.90;;;;;;5038581;28;20041;-62
2021/11/27 11:15:47;;;;;;;4.20;2.60;;;3.10;99.90;;;;;;5033701;28;20033;-61
2021/11/27 11:18:18;;;;;;;3.42;2.47;;;3.10;99.90;;;;;;5037391;28;20045;-62
2021/11/27 11:20:47;;;;;;;4.10;2.78;;;3.00;99.90;;;;;;5034834;28;20045;-62
2021/11/27 11:23:16;;;;;;;3.63;2.90;;;3.10;99.90;;;;;;5043175;28;20086;-61
2021/11/27 11:26:11;;;;;;;3.72;2.70;;;3.20;99.90;;;;;;5040848;28;20038;-62
2021/11/27 11:28:49;;;;;;;6.70;3.00;;;3.20;99.90;;;;;;5047265;28;20604;-61
2021/11/27 11:31:22;;;;;;;14.15;7.88;;;3.20;99.90;;;;;;5030157;28;20045;-61
2021/11/27 11:33:51;;;;;;;12.02;5.50;;;3.20;99.90;;;;;;5041246;28;20457;-61
2021/11/27 11:36:18;;;;;;;10.77;5.03;;;3.10;99.90;;;;;;5037930;28;20047;-61
2021/11/27 11:38:46;;;;;;;22.08;9.75;;;3.10;99.90;;;;;;5041611;28;20036;-61
2021/11/27 11:41:13;;;;;;;14.40;6.75;;;3.00;99.90;;;;;;5032383;28;20033;-62
2021/11/27 11:43:39;;;;;;;8.02;3.80;;;2.90;99.90;;;;;;5040249;28;20041;-62
2021/11/27 11:46:06;;;;;;;7.88;4.10;;;2.90;99.90;;;;;;5030766;28;20052;-62
2021/11/27 11:48:33;;;;;;;5.38;3.53;;;3.10;99.90;;;;;;5041200;28;20056;-61
2021/11/27 11:51:23;;;;;;;5.72;3.55;;;3.20;99.90;;;;;;5032629;28;20037;-62
2021/11/27 11:53:53;;;;;;;10.65;3.58;;;3.20;99.90;;;;;;5039362;28;20170;-62
2021/11/27 11:56:20;;;;;;;6.75;3.65;;;3.40;99.90;;;;;;5043930;28;20052;-62
2021/11/27 11:58:49;;;;;;;6.47;3.13;;;3.40;99.90;;;;;;5040845;28;20048;-61
2021/11/27 12:01:21;;;;;;;6.57;3.30;;;3.30;99.90;;;;;;5036401;28;20052;-63
2021/11/27 12:03:49;;;;;;;10.63;3.75;;;3.30;99.90;;;;;;5047311;28;20041;-62
2021/11/27 12:06:32;;;;;;;6.13;3.45;;;3.40;99.90;;;;;;5038871;28;20042;-61
2021/11/27 12:09:04;;;;;;;11.43;6.65;;;3.50;99.90;;;;;;5040525;28;20140;-62
2021/11/27 12:11:46;;;;;;;7.82;4.97;;;3.30;99.90;;;;;;5040907;28;20033;-62
2021/11/27 12:14:21;;;;;;;6.97;4.93;;;3.30;99.90;;;;;;5051976;28;20120;-62
2021/11/27 12:17:15;;;;;;;12.23;6.93;;;3.30;99.90;;;;;;5036403;28;20040;-62
2021/11/27 12:20:00;;;;;;;7.15;4.53;;;3.20;99.90;;;;;;5045314;28;20044;-62
2021/11/27 12:22:36;;;;;;;9.65;4.57;;;3.10;99.90;;;;;;5042375;28;20050;-62
2021/11/27 12:25:02;;;;;;;10.05;4.82;;;3.10;99.90;;;;;;5044176;28;20047;-62
2021/11/27 12:27:28;;;;;;;10.80;4.78;;;3.00;99.90;;;;;;5038161;28;20041;-62
2021/11/27 12:30:03;;;;;;;9.90;4.50;;;2.90;99.90;;;;;;5047117;28;20506;-61
2021/11/27 12:32:39;;;;;;;8.55;4.60;;;2.90;99.90;;;;;;5041629;28;20132;-62
2021/11/27 12:35:25;;;;;;;8.00;4.72;;;3.00;99.90;;;;;;5042104;28;20033;-62
2021/11/27 12:37:52;;;;;;;7.45;5.15;;;2.90;99.90;;;;;;5033117;28;20099;-62
2021/11/27 12:40:39;;;;;;;6.68;4.68;;;2.90;99.90;;;;;;5047152;28;20393;-60
2021/11/27 12:43:15;;;;;;;8.38;4.03;;;2.80;99.90;;;;;;5049618;28;20029;-62
2021/11/27 12:45:43;;;;;;;9.32;4.32;;;2.80;99.90;;;;;;5041632;28;20048;-59
2021/11/27 12:48:31;;;;;;;9.45;3.95;;;2.90;99.90;;;;;;5042411;28;20083;-61
2021/11/27 12:51:23;;;;;;;7.57;3.65;;;3.10;99.90;;;;;;5037736;28;20521;-62
2021/11/27 12:53:58;;;;;;;8.30;3.45;;;3.20;99.90;;;;;;5042523;28;20071;-62
2021/11/27 12:56:50;;;;;;;8.10;3.38;;;3.20;99.90;;;;;;5047239;28;20090;-66
2021/11/27 12:59:24;;;;;;;7.50;3.17;;;3.20;99.90;;;;;;5047585;28;20496;-63
2021/11/27 13:01:54;;;;;;;7.03;3.30;;;3.00;99.90;;;;;;5047112;28;20099;-60